Time;durP1;ratioP1;P1;durP2;ratioP2;P2;SDS_P1;SDS_P2;PMS_P1;PMS_P2;Temp;Humidity;BMP_temperature;BMP_pressure;BME280_temperature;BME280_humidity;BME280_pressure;Samples;Min_cycle;Max_cycle;Signal;HPM_P1;HPM_P2
2023/09/08 00:00:50;;;;;;;8.97;8.20;;;18.90;65.60;;;;;;6203629;28;20262;-83
2023/09/08 00:03:54;;;;;;;9.70;8.90;;;18.90;65.70;;;;;;6207192;28;20259;-82
2023/09/08 00:06:57;;;;;;;9.30;8.67;;;18.80;66.00;;;;;;6196138;28;20646;-84
2023/09/08 00:10:02;;;;;;;9.57;8.80;;;18.80;66.00;;;;;;6214230;28;20231;-83
2023/09/08 00:13:05;;;;;;;9.40;8.73;;;18.80;66.10;;;;;;6212763;28;20892;-85
2023/09/08 00:16:10;;;;;;;9.53;8.83;;;18.80;66.10;;;;;;6202634;28;20757;-82
2023/09/08 00:19:13;;;;;;;8.77;8.20;;;18.80;66.10;;;;;;6207212;28;20811;-83
2023/09/08 00:22:16;;;;;;;9.53;8.87;;;18.80;66.20;;;;;;6210267;28;20298;-84
2023/09/08 00:25:20;;;;;;;10.20;9.30;;;18.80;66.20;;;;;;6199129;28;20303;-83
2023/09/08 00:28:23;;;;;;;10.13;9.10;;;18.80;66.00;;;;;;6227705;28;20278;-84
2023/09/08 00:31:26;;;;;;;10.50;9.60;;;18.80;66.10;;;;;;6211148;28;20302;-81
2023/09/08 00:34:30;;;;;;;10.77;9.77;;;18.70;66.10;;;;;;6185944;28;20239;-85
2023/09/08 00:37:33;;;;;;;9.43;8.80;;;18.70;66.20;;;;;;6193280;28;20286;-84
2023/09/08 00:40:38;;;;;;;10.40;9.50;;;18.70;66.20;;;;;;6208957;28;20382;-84
2023/09/08 00:43:41;;;;;;;10.60;9.57;;;18.60;66.40;;;;;;6210542;28;20255;-83
2023/09/08 00:46:44;;;;;;;9.97;9.17;;;18.60;66.40;;;;;;6213871;28;20327;-82
2023/09/08 00:49:49;;;;;;;9.70;9.00;;;18.60;66.30;;;;;;6210358;28;20565;-84
2023/09/08 00:52:52;;;;;;;10.20;9.30;;;18.50;66.50;;;;;;6218284;28;20735;-82
2023/09/08 00:55:57;;;;;;;10.67;9.70;;;18.50;66.60;;;;;;6213591;28;20314;-82
2023/09/08 00:59:02;;;;;;;10.33;9.40;;;18.40;66.80;;;;;;6203106;28;20691;-82
2023/09/08 01:02:06;;;;;;;10.10;9.27;;;18.40;66.80;;;;;;6201145;28;20235;-84
2023/09/08 01:05:09;;;;;;;10.60;9.73;;;18.30;66.90;;;;;;6213409;28;20330;-82
2023/09/08 01:08:13;;;;;;;11.00;10.10;;;18.30;67.10;;;;;;6213436;28;21746;-80
2023/09/08 01:11:18;;;;;;;13.97;10.57;;;18.30;67.30;;;;;;6207518;28;20708;-82
2023/09/08 01:14:22;;;;;;;11.73;10.17;;;18.30;67.20;;;;;;6205610;28;20278;-80
2023/09/08 01:17:25;;;;;;;10.23;9.53;;;18.30;67.20;;;;;;6215979;28;20239;-82
2023/09/08 01:20:35;;;;;;;11.70;10.63;;;18.30;67.30;;;;;;6209506;28;20243;-84
2023/09/08 01:23:56;;;;;;;10.37;9.43;;;18.30;67.40;;;;;;6217754;28;20232;-84
2023/09/08 01:27:00;;;;;;;10.40;9.50;;;18.20;67.20;;;;;;6204124;28;20318;-85
2023/09/08 01:30:05;;;;;;;10.37;9.47;;;18.30;67.20;;;;;;6223911;28;20270;-83
2023/09/08 01:33:08;;;;;;;11.20;10.23;;;18.30;67.30;;;;;;6202040;28;20319;-83
2023/09/08 01:36:12;;;;;;;11.00;9.87;;;18.30;67.10;;;;;;6180059;28;20243;-82
2023/09/08 01:39:15;;;;;;;11.50;10.50;;;18.30;67.00;;;;;;6209745;28;20778;-84
2023/09/08 01:42:19;;;;;;;10.67;9.87;;;18.20;67.20;;;;;;6211783;28;20641;-83
2023/09/08 01:45:23;;;;;;;10.80;10.10;;;18.20;67.30;;;;;;6202758;28;20345;-86
2023/09/08 01:48:26;;;;;;;11.23;10.33;;;18.20;67.20;;;;;;6208115;28;20345;-84
2023/09/08 01:51:29;;;;;;;11.20;10.07;;;18.20;67.30;;;;;;6207554;28;20239;-83
2023/09/08 01:54:32;;;;;;;11.10;10.27;;;18.20;67.30;;;;;;6195785;28;20446;-83
2023/09/08 01:57:37;;;;;;;10.63;9.93;;;18.20;67.30;;;;;;6207844;28;20239;-83
2023/09/08 02:00:40;;;;;;;10.97;10.13;;;18.20;67.40;;;;;;6206201;28;20314;-83
2023/09/08 02:03:43;;;;;;;10.60;9.80;;;18.10;67.70;;;;;;6202716;28;20237;-82
2023/09/08 02:06:46;;;;;;;10.80;9.93;;;18.10;67.60;;;;;;6216648;28;20668;-82
2023/09/08 02:09:49;;;;;;;11.03;10.10;;;18.00;67.80;;;;;;6207658;28;20672;-83
2023/09/08 02:12:57;;;;;;;12.53;10.47;;;17.90;68.00;;;;;;6209251;28;20300;-83
2023/09/08 02:16:00;;;;;;;11.50;10.50;;;17.80;68.30;;;;;;6206160;28;20255;-83
2023/09/08 02:19:04;;;;;;;10.80;10.00;;;17.80;68.20;;;;;;6210762;28;20242;-86
2023/09/08 02:22:07;;;;;;;11.53;10.27;;;17.80;68.20;;;;;;6208734;28;20239;-84
2023/09/08 02:25:10;;;;;;;10.80;10.10;;;17.80;68.50;;;;;;6197980;28;20262;-84
2023/09/08 02:28:18;;;;;;;10.43;9.67;;;17.80;68.60;;;;;;6206830;28;20239;-85
2023/09/08 02:31:21;;;;;;;11.50;10.50;;;17.80;68.40;;;;;;6188623;28;20235;-81
2023/09/08 02:34:24;;;;;;;11.63;10.63;;;17.70;68.70;;;;;;6204128;28;20946;-84
2023/09/08 02:37:27;;;;;;;11.43;10.43;;;17.60;68.60;;;;;;6204465;28;20786;-81
2023/09/08 02:40:30;;;;;;;11.37;10.43;;;17.60;68.70;;;;;;6202258;28;20231;-82
2023/09/08 02:43:37;;;;;;;10.63;9.83;;;17.60;68.80;;;;;;6201184;28;20318;-81
2023/09/08 02:46:40;;;;;;;10.83;10.03;;;17.60;68.90;;;;;;6201920;28;20762;-83
2023/09/08 02:49:44;;;;;;;12.67;11.67;;;17.50;68.90;;;;;;6205725;28;20259;-84
2023/09/08 02:52:47;;;;;;;11.67;10.67;;;17.50;69.20;;;;;;6211788;28;20228;-84
2023/09/08 02:55:50;;;;;;;12.13;11.13;;;17.50;69.30;;;;;;6207074;28;20374;-82
2023/09/08 02:58:54;;;;;;;11.83;10.83;;;17.50;69.30;;;;;;6204529;28;20997;-85
2023/09/08 03:01:58;;;;;;;11.60;10.60;;;17.50;69.40;;;;;;6202913;28;20240;-82
2023/09/08 03:05:02;;;;;;;12.00;10.80;;;17.40;69.50;;;;;;6202700;28;20827;-82
2023/09/08 03:08:06;;;;;;;12.13;11.23;;;17.40;69.40;;;;;;6202521;28;20242;-83
2023/09/08 03:11:10;;;;;;;12.00;10.83;;;17.40;69.60;;;;;;6209082;28;20699;-83
2023/09/08 03:14:14;;;;;;;12.67;11.47;;;17.40;69.60;;;;;;6213378;28;20234;-83
2023/09/08 03:17:18;;;;;;;12.47;11.53;;;17.30;69.60;;;;;;6208610;28;20242;-83
2023/09/08 03:20:21;;;;;;;13.13;12.03;;;17.30;69.70;;;;;;6198869;28;20243;-84
2023/09/08 03:23:24;;;;;;;11.70;10.60;;;17.20;69.90;;;;;;6209779;28;20249;-84
2023/09/08 03:26:28;;;;;;;12.13;11.03;;;17.20;70.10;;;;;;6199528;28;20293;-83
2023/09/08 03:29:32;;;;;;;12.90;11.67;;;17.20;70.00;;;;;;6200843;28;20236;-81
2023/09/08 03:32:36;;;;;;;11.00;10.20;;;17.20;70.10;;;;;;6201741;28;20254;-82
2023/09/08 03:35:39;;;;;;;13.13;11.90;;;17.20;70.10;;;;;;6191496;28;20235;-80
2023/09/08 03:38:42;;;;;;;12.37;11.47;;;17.10;70.40;;;;;;6193343;28;20251;-82
2023/09/08 03:41:46;;;;;;;11.90;10.90;;;17.00;70.30;;;;;;6220562;28;20246;-82
2023/09/08 03:44:51;;;;;;;13.10;12.10;;;17.00;70.40;;;;;;6223448;28;20239;-85
2023/09/08 03:47:55;;;;;;;10.70;9.90;;;17.00;70.50;;;;;;6203954;28;20740;-83
2023/09/08 03:50:58;;;;;;;13.00;11.90;;;17.00;70.60;;;;;;6203811;28;20737;-83
2023/09/08 03:54:03;;;;;;;12.87;11.87;;;17.00;70.80;;;;;;6213480;28;20227;-79
2023/09/08 03:57:06;;;;;;;13.93;12.63;;;16.90;70.90;;;;;;6197248;28;20240;-81
2023/09/08 04:00:11;;;;;;;14.13;12.83;;;16.90;71.00;;;;;;6205274;28;20243;-81
2023/09/08 04:03:15;;;;;;;13.70;12.37;;;16.90;71.10;;;;;;6227396;28;20239;-80
2023/09/08 04:06:18;;;;;;;13.20;12.03;;;16.90;71.20;;;;;;6206997;28;20238;-81
2023/09/08 04:09:21;;;;;;;12.87;11.67;;;16.80;71.10;;;;;;6208561;28;20326;-79
2023/09/08 04:12:24;;;;;;;14.03;12.87;;;16.80;71.10;;;;;;6223597;28;20270;-79
2023/09/08 04:15:28;;;;;;;13.03;11.93;;;16.80;71.20;;;;;;6205877;28;20639;-80
2023/09/08 04:18:31;;;;;;;12.63;11.40;;;16.80;71.20;;;;;;6220019;28;20793;-82
2023/09/08 04:21:37;;;;;;;13.60;12.40;;;16.80;71.30;;;;;;6205604;28;20246;-79
2023/09/08 04:24:40;;;;;;;13.73;12.37;;;16.70;71.30;;;;;;6210800;28;20236;-80
2023/09/08 04:27:45;;;;;;;13.73;12.33;;;16.70;71.30;;;;;;6217776;28;20704;-81
2023/09/08 04:30:49;;;;;;;13.37;12.07;;;16.70;71.50;;;;;;6210723;28;20300;-78
2023/09/08 04:33:54;;;;;;;13.37;12.13;;;16.70;71.50;;;;;;6203175;28;20254;-82
2023/09/08 04:36:57;;;;;;;14.13;12.60;;;16.70;71.50;;;;;;6227365;28;20243;-79
2023/09/08 04:40:00;;;;;;;12.57;11.47;;;16.70;71.60;;;;;;6207128;28;20235;-79
2023/09/08 04:43:05;;;;;;;13.07;12.00;;;16.70;71.60;;;;;;6217384;28;20358;-79
2023/09/08 04:46:10;;;;;;;13.63;11.83;;;16.60;71.60;;;;;;6208268;28;20235;-80
2023/09/08 04:49:13;;;;;;;12.17;11.37;;;16.60;71.70;;;;;;6213260;28;20232;-83
2023/09/08 04:52:16;;;;;;;12.10;11.23;;;16.60;71.70;;;;;;6215578;28;20292;-80
2023/09/08 04:55:19;;;;;;;14.43;12.60;;;16.60;71.80;;;;;;6201090;28;20256;-81
2023/09/08 04:58:22;;;;;;;13.00;11.90;;;16.60;71.80;;;;;;6201687;28;20255;-79
2023/09/08 05:01:27;;;;;;;12.67;11.47;;;16.60;71.80;;;;;;6209100;28;20247;-80
2023/09/08 05:04:30;;;;;;;13.33;12.17;;;16.60;71.80;;;;;;6208216;28;20300;-81
2023/09/08 05:07:33;;;;;;;13.97;12.67;;;16.60;71.90;;;;;;6200943;28;20290;-80
2023/09/08 05:10:36;;;;;;;13.40;12.07;;;16.60;71.80;;;;;;6198869;28;20305;-78
2023/09/08 05:13:39;;;;;;;13.17;11.87;;;16.60;71.90;;;;;;6213433;28;20741;-80
2023/09/08 05:16:46;;;;;;;15.63;12.57;;;16.60;71.80;;;;;;6206512;28;20862;-83
2023/09/08 05:19:49;;;;;;;13.70;12.57;;;16.60;71.90;;;;;;6197120;28;20246;-79
2023/09/08 05:22:53;;;;;;;13.77;12.43;;;16.70;71.70;;;;;;6209777;28;20982;-81
2023/09/08 05:25:56;;;;;;;24.03;13.37;;;16.70;71.60;;;;;;6207233;28;20275;-80
2023/09/08 05:28:59;;;;;;;17.47;14.13;;;16.80;71.60;;;;;;6205093;28;20242;-81
2023/09/08 05:32:04;;;;;;;16.43;13.20;;;16.80;71.50;;;;;;6208853;28;20239;-79
2023/09/08 05:35:10;;;;;;;17.13;13.97;;;16.80;71.40;;;;;;6210405;28;20326;-80
2023/09/08 05:38:14;;;;;;;13.37;12.13;;;16.80;71.50;;;;;;6208628;28;20258;-80
2023/09/08 05:41:17;;;;;;;12.70;11.70;;;16.80;71.50;;;;;;6208559;28;20869;-81
2023/09/08 05:44:20;;;;;;;14.53;13.13;;;16.90;71.40;;;;;;6213601;28;20243;-80
2023/09/08 05:47:25;;;;;;;14.53;13.07;;;16.90;71.40;;;;;;6206361;28;20675;-79
2023/09/08 05:50:28;;;;;;;14.17;12.90;;;17.00;71.40;;;;;;6205618;28;20265;-80
2023/09/08 05:53:32;;;;;;;13.60;12.47;;;17.00;71.30;;;;;;6200926;28;20248;-80
2023/09/08 05:56:38;;;;;;;15.90;14.60;;;17.00;71.20;;;;;;6196835;28;20235;-79
2023/09/08 05:59:41;;;;;;;14.93;13.70;;;17.20;71.00;;;;;;6203537;28;20739;-79
2023/09/08 06:02:45;;;;;;;13.30;12.27;;;17.20;70.80;;;;;;6210106;28;20623;-80
2023/09/08 06:05:49;;;;;;;13.57;12.37;;;17.30;70.70;;;;;;6209165;28;20310;-80
2023/09/08 06:08:52;;;;;;;14.03;12.83;;;17.50;70.50;;;;;;6199347;28;20238;-82
2023/09/08 06:11:55;;;;;;;14.53;12.13;;;17.50;70.40;;;;;;6206050;28;20231;-79
2023/09/08 06:14:58;;;;;;;11.63;10.73;;;17.80;69.90;;;;;;6200571;28;20238;-81
2023/09/08 06:18:02;;;;;;;13.70;12.47;;;18.00;69.50;;;;;;6205801;28;20235;-83
2023/09/08 06:21:05;;;;;;;13.90;12.70;;;18.10;69.10;;;;;;6200182;28;20242;-81
2023/09/08 06:24:09;;;;;;;12.10;10.97;;;18.20;68.40;;;;;;6205455;28;20654;-81
2023/09/08 06:27:13;;;;;;;13.67;12.30;;;18.30;68.30;;;;;;6207486;28;20236;-79
2023/09/08 06:30:18;;;;;;;14.60;13.03;;;18.40;68.10;;;;;;6204185;28;20254;-78
2023/09/08 06:33:23;;;;;;;13.00;11.70;;;18.40;67.70;;;;;;6198778;28;20255;-80
2023/09/08 06:36:27;;;;;;;13.30;12.10;;;18.50;67.60;;;;;;6193437;28;20334;-81
2023/09/08 06:39:32;;;;;;;13.50;12.40;;;18.50;67.70;;;;;;6211234;28;20247;-79
2023/09/08 06:42:36;;;;;;;13.43;12.07;;;18.60;67.70;;;;;;6211688;28;20238;-84
2023/09/08 06:45:39;;;;;;;14.37;12.30;;;18.60;67.80;;;;;;6206543;28;20247;-84
2023/09/08 06:48:44;;;;;;;13.20;11.93;;;18.70;67.90;;;;;;6208407;28;20236;-84
2023/09/08 06:51:48;;;;;;;14.97;12.97;;;18.80;67.20;;;;;;6211587;28;20244;-82
2023/09/08 06:54:52;;;;;;;13.27;11.97;;;18.90;67.20;;;;;;6207173;28;20242;-81
2023/09/08 06:57:55;;;;;;;13.87;12.43;;;19.00;66.90;;;;;;6214184;28;20263;-82
2023/09/08 07:00:58;;;;;;;13.07;11.50;;;19.30;66.40;;;;;;6214406;28;20246;-82
2023/09/08 07:04:02;;;;;;;15.07;12.40;;;19.80;65.40;;;;;;6210159;28;20234;-83
2023/09/08 07:07:07;;;;;;;14.27;11.33;;;20.30;64.60;;;;;;6204793;28;20235;-80
2023/09/08 07:10:11;;;;;;;12.97;11.30;;;20.30;64.20;;;;;;6213557;28;20236;-81
2023/09/08 07:13:14;;;;;;;11.60;10.50;;;20.20;64.30;;;;;;6217479;28;20542;-81
2023/09/08 07:16:17;;;;;;;13.03;11.63;;;20.20;64.60;;;;;;6207196;28;20239;-81
2023/09/08 07:19:22;;;;;;;12.17;10.80;;;20.10;64.60;;;;;;6209380;28;20230;-77
2023/09/08 07:22:25;;;;;;;13.83;12.30;;;20.10;64.70;;;;;;6207194;28;20235;-81
2023/09/08 07:25:28;;;;;;;11.43;10.40;;;20.10;64.70;;;;;;6201245;28;20688;-79
2023/09/08 07:28:33;;;;;;;11.23;10.33;;;20.10;64.90;;;;;;6207811;28;20922;-82
2023/09/08 07:31:36;;;;;;;11.67;10.67;;;20.20;65.10;;;;;;6204879;28;20329;-80
2023/09/08 07:34:41;;;;;;;12.97;11.67;;;20.30;65.10;;;;;;6207151;28;20257;-80
2023/09/08 07:37:44;;;;;;;14.90;11.20;;;20.60;64.30;;;;;;6211960;28;20905;-79
2023/09/08 07:40:47;;;;;;;12.30;10.97;;;20.70;63.80;;;;;;6209916;28;20672;-81
2023/09/08 07:43:50;;;;;;;12.33;10.97;;;20.80;63.90;;;;;;6211074;28;20243;-82
2023/09/08 07:46:56;;;;;;;11.40;10.20;;;20.90;63.50;;;;;;6211010;28;20247;-79
2023/09/08 07:50:19;;;;;;;11.03;10.00;;;20.90;63.40;;;;;;6208703;28;20240;-83
2023/09/08 07:53:22;;;;;;;10.37;9.57;;;20.90;63.40;;;;;;6218218;28;20829;-83
2023/09/08 07:56:25;;;;;;;13.27;10.87;;;21.00;63.10;;;;;;6212865;28;20669;-79
2023/09/08 07:59:28;;;;;;;11.13;10.10;;;21.10;62.80;;;;;;6209045;28;20250;-79
2023/09/08 08:02:32;;;;;;;11.00;10.10;;;21.10;62.30;;;;;;6216629;28;20312;-82
2023/09/08 08:05:37;;;;;;;10.87;9.90;;;21.20;62.30;;;;;;6213899;28;20266;-79
2023/09/08 08:08:40;;;;;;;15.10;9.30;;;21.40;61.70;;;;;;6199465;28;20806;-78
2023/09/08 08:11:43;;;;;;;10.30;9.37;;;21.50;61.80;;;;;;6214240;28;20247;-80
2023/09/08 08:14:47;;;;;;;10.47;9.20;;;21.70;61.70;;;;;;6213485;28;20243;-79
2023/09/08 08:17:50;;;;;;;11.43;9.37;;;21.70;61.90;;;;;;6226897;28;20358;-81
2023/09/08 08:20:55;;;;;;;10.37;9.43;;;21.90;60.70;;;;;;6218059;28;20226;-81
2023/09/08 08:23:58;;;;;;;10.10;9.30;;;22.00;60.50;;;;;;6209420;28;20262;-79
2023/09/08 08:27:02;;;;;;;10.23;9.37;;;22.10;60.80;;;;;;6206332;28;20255;-81
2023/09/08 08:30:07;;;;;;;10.97;10.13;;;22.20;60.60;;;;;;6221146;28;20320;-82
2023/09/08 08:33:10;;;;;;;10.20;9.20;;;22.30;59.90;;;;;;6214544;28;20228;-79
2023/09/08 08:36:15;;;;;;;13.93;9.93;;;22.50;59.90;;;;;;6216223;28;20362;-82
2023/09/08 08:39:18;;;;;;;11.07;8.97;;;22.60;59.40;;;;;;6200610;28;20248;-81
2023/09/08 08:42:32;;;;;;;11.37;10.20;;;22.70;59.10;;;;;;6206549;28;20270;-80
2023/09/08 08:45:37;;;;;;;11.97;9.53;;;22.80;58.90;;;;;;6201645;28;20246;-79
2023/09/08 08:48:43;;;;;;;14.83;9.90;;;22.80;58.90;;;;;;6210288;28;20239;-84
2023/09/08 08:51:48;;;;;;;12.40;8.40;;;23.00;58.50;;;;;;6208030;28;20232;-79
2023/09/08 08:54:51;;;;;;;10.80;8.60;;;23.10;58.30;;;;;;6208953;28;20278;-82
2023/09/08 08:57:55;;;;;;;9.60;8.77;;;23.30;58.00;;;;;;6208018;28;20361;-80
2023/09/08 09:01:00;;;;;;;10.97;9.90;;;23.40;57.70;;;;;;6214816;28;20235;-80
2023/09/08 09:04:06;;;;;;;10.40;9.20;;;23.50;57.70;;;;;;6214292;28;20251;-80
2023/09/08 09:07:13;;;;;;;9.27;8.57;;;23.60;58.00;;;;;;6200691;28;20259;-81
2023/09/08 09:10:16;;;;;;;9.13;8.43;;;23.70;57.20;;;;;;6210570;28;20246;-80
2023/09/08 09:13:19;;;;;;;9.33;8.53;;;23.90;56.80;;;;;;6211486;28;20269;-79
2023/09/08 09:16:22;;;;;;;10.37;9.37;;;24.00;56.60;;;;;;6204538;28;20275;-79
2023/09/08 09:19:27;;;;;;;9.17;8.47;;;24.10;56.10;;;;;;6205969;28;20242;-80
2023/09/08 09:22:39;;;;;;;8.87;8.27;;;24.20;55.90;;;;;;6206452;28;20231;-80
2023/09/08 09:25:43;;;;;;;9.37;8.57;;;24.40;55.70;;;;;;6205353;28;20801;-81
2023/09/08 09:28:49;;;;;;;8.50;7.87;;;24.40;56.00;;;;;;6214089;28;20533;-82
2023/09/08 09:31:53;;;;;;;9.40;8.53;;;24.60;55.10;;;;;;6212491;28;21496;-79
2023/09/08 09:34:59;;;;;;;9.63;8.37;;;24.80;55.30;;;;;;6209974;28;20575;-80
2023/09/08 09:38:05;;;;;;;8.87;8.13;;;25.00;55.00;;;;;;6206559;28;20238;-79
2023/09/08 09:41:08;;;;;;;9.33;8.03;;;25.00;54.60;;;;;;6209277;28;20235;-82
2023/09/08 09:44:12;;;;;;;9.33;8.50;;;25.20;54.00;;;;;;6209938;28;20879;-81
2023/09/08 09:47:15;;;;;;;9.00;8.50;;;25.30;53.70;;;;;;6204580;28;20812;-81
2023/09/08 09:50:29;;;;;;;11.13;8.83;;;25.40;53.40;;;;;;6211883;28;20242;-81
2023/09/08 09:53:34;;;;;;;9.17;8.47;;;25.50;54.00;;;;;;6192400;28;20238;-84
2023/09/08 09:56:39;;;;;;;9.17;8.57;;;25.60;53.60;;;;;;6206684;28;20246;-76
2023/09/08 09:59:45;;;;;;;9.27;8.37;;;25.60;53.20;;;;;;6208693;28;20239;-80
2023/09/08 10:02:48;;;;;;;8.40;7.83;;;25.60;53.90;;;;;;6207658;28;20235;-82
2023/09/08 10:05:51;;;;;;;8.70;7.90;;;25.70;53.70;;;;;;6212631;28;20239;-81
2023/09/08 10:08:56;;;;;;;9.53;8.50;;;25.90;53.70;;;;;;6206636;28;20254;-80
2023/09/08 10:12:04;;;;;;;10.07;8.00;;;26.00;53.00;;;;;;6210706;28;20239;-81
2023/09/08 10:15:10;;;;;;;8.37;7.77;;;26.10;53.10;;;;;;6206047;28;20244;-82
2023/09/08 10:18:17;;;;;;;8.50;7.80;;;26.30;52.60;;;;;;6201318;28;20564;-80
2023/09/08 10:21:24;;;;;;;8.27;7.47;;;26.40;52.60;;;;;;6209069;28;20239;-80
2023/09/08 10:24:34;;;;;;;8.27;7.67;;;26.50;51.60;;;;;;6203272;28;20767;-81
2023/09/08 10:27:38;;;;;;;8.10;7.33;;;26.70;51.50;;;;;;6213991;28;20246;-81
2023/09/08 10:30:42;;;;;;;8.00;7.40;;;26.80;51.80;;;;;;6209841;28;20729;-81
2023/09/08 10:33:47;;;;;;;9.27;8.43;;;26.80;51.00;;;;;;6216890;28;20259;-82
2023/09/08 10:36:50;;;;;;;10.37;8.00;;;26.90;51.20;;;;;;6198877;28;20589;-81
2023/09/08 10:39:54;;;;;;;8.30;7.53;;;27.20;51.30;;;;;;6200341;28;20239;-83
2023/09/08 10:43:19;;;;;;;9.40;7.33;;;27.10;50.00;;;;;;6201275;28;20239;-83
2023/09/08 10:46:24;;;;;;;7.80;7.00;;;27.10;49.80;;;;;;6208492;28;20250;-82
2023/09/08 10:49:28;;;;;;;7.87;7.17;;;27.10;49.50;;;;;;6203577;28;20243;-80
2023/09/08 10:52:33;;;;;;;8.53;7.87;;;27.20;50.00;;;;;;6211609;28;20236;-80
2023/09/08 10:55:47;;;;;;;8.07;7.30;;;27.20;49.70;;;;;;6213397;28;20896;-83
2023/09/08 10:59:02;;;;;;;7.93;7.27;;;27.30;49.70;;;;;;6203900;28;20232;-81
2023/09/08 11:02:06;;;;;;;7.50;7.07;;;27.30;49.50;;;;;;6208669;28;20251;-82
2023/09/08 11:05:14;;;;;;;8.10;7.30;;;27.50;49.40;;;;;;6210545;28;20578;-83
2023/09/08 11:08:19;;;;;;;7.90;7.10;;;27.50;49.00;;;;;;6213567;28;20242;-83
2023/09/08 11:11:23;;;;;;;7.90;7.30;;;27.50;48.90;;;;;;6205512;28;20243;-82
2023/09/08 11:14:27;;;;;;;7.97;7.30;;;27.50;49.20;;;;;;6217696;28;20261;-84
2023/09/08 11:17:31;;;;;;;7.67;7.07;;;27.70;48.90;;;;;;6209772;28;20235;-81
2023/09/08 11:20:35;;;;;;;7.63;7.23;;;27.80;48.80;;;;;;6217814;28;20783;-81
2023/09/08 11:23:39;;;;;;;8.47;7.17;;;27.80;49.10;;;;;;6208439;28;20239;-82
2023/09/08 11:26:46;;;;;;;7.00;6.50;;;27.90;48.60;;;;;;6215482;28;20258;-82
2023/09/08 11:29:52;;;;;;;7.73;7.23;;;28.00;47.90;;;;;;6213421;28;20382;-81
2023/09/08 11:32:58;;;;;;;7.37;6.87;;;28.10;47.20;;;;;;6211240;28;20337;-82
2023/09/08 11:36:02;;;;;;;6.50;6.00;;;28.00;47.60;;;;;;6213589;28;20228;-81
2023/09/08 11:39:11;;;;;;;7.57;6.80;;;28.10;47.20;;;;;;6202546;28;20374;-81
2023/09/08 11:42:16;;;;;;;11.00;6.53;;;28.10;47.20;;;;;;6199833;28;20235;-82
2023/09/08 11:45:21;;;;;;;6.53;6.13;;;28.30;47.50;;;;;;6212219;28;20235;-81
2023/09/08 11:48:25;;;;;;;7.40;6.90;;;28.30;48.20;;;;;;6192952;28;20247;-80
2023/09/08 11:51:28;;;;;;;6.47;6.00;;;28.50;47.70;;;;;;6222979;28;20267;-81
2023/09/08 11:54:32;;;;;;;6.47;6.00;;;28.50;47.50;;;;;;6215127;28;20265;-81
2023/09/08 11:57:38;;;;;;;6.95;6.45;;;28.70;47.80;;;;;;6203640;28;20243;-81
2023/09/08 12:00:42;;;;;;;9.93;6.88;;;28.80;47.50;;;;;;6207761;28;20903;-80
2023/09/08 12:03:54;;;;;;;6.45;6.03;;;28.80;46.20;;;;;;6198610;28;20310;-79
2023/09/08 12:06:57;;;;;;;6.30;6.00;;;28.80;45.80;;;;;;6219924;28;20627;-80
2023/09/08 12:10:09;;;;;;;6.93;6.55;;;28.90;46.60;;;;;;6208179;28;20727;-80
2023/09/08 12:13:16;;;;;;;6.72;6.22;;;28.90;46.30;;;;;;6212234;28;20224;-81
2023/09/08 12:16:22;;;;;;;7.65;7.07;;;28.90;46.10;;;;;;6208052;28;20233;-82
2023/09/08 12:19:32;;;;;;;6.70;6.20;;;28.90;46.90;;;;;;6211505;28;20239;-79
2023/09/08 12:22:35;;;;;;;6.88;6.50;;;28.90;46.10;;;;;;6209746;28;20235;-79
2023/09/08 12:25:45;;;;;;;6.85;6.30;;;28.90;45.90;;;;;;6214427;28;20251;-79
2023/09/08 12:28:50;;;;;;;7.20;6.70;;;28.60;46.20;;;;;;6212906;28;20235;-80
2023/09/08 12:31:53;;;;;;;6.88;6.32;;;28.60;46.80;;;;;;6214375;28;20231;-80
2023/09/08 12:34:56;;;;;;;6.70;6.22;;;28.60;46.90;;;;;;6207509;28;20262;-81
2023/09/08 12:38:00;;;;;;;6.82;6.38;;;28.60;46.80;;;;;;6218725;28;20247;-79
2023/09/08 12:41:07;;;;;;;7.10;6.50;;;28.70;47.10;;;;;;6204162;28;20316;-77
2023/09/08 12:44:11;;;;;;;7.65;6.43;;;28.80;47.30;;;;;;6200081;28;20232;-80
2023/09/08 12:47:14;;;;;;;8.05;6.72;;;28.80;46.30;;;;;;6208409;28;20321;-80
2023/09/08 12:50:17;;;;;;;9.65;7.05;;;28.80;46.00;;;;;;6209521;28;20626;-78
2023/09/08 12:53:23;;;;;;;7.45;6.68;;;28.80;46.70;;;;;;6205916;28;20250;-79
2023/09/08 12:56:26;;;;;;;7.35;6.60;;;28.70;45.90;;;;;;6207764;28;20949;-81
2023/09/08 12:59:30;;;;;;;7.70;6.85;;;28.70;46.50;;;;;;6207982;28;20247;-80
2023/09/08 13:02:33;;;;;;;7.00;6.53;;;28.90;46.90;;;;;;6210736;28;20279;-83
2023/09/08 13:05:38;;;;;;;6.22;5.93;;;28.90;46.30;;;;;;6203535;28;20250;-82
2023/09/08 13:08:42;;;;;;;6.63;6.18;;;28.90;45.30;;;;;;6211461;28;20274;-83
2023/09/08 13:11:45;;;;;;;6.40;6.10;;;28.90;45.80;;;;;;6210761;28;20358;-82
2023/09/08 13:14:49;;;;;;;6.20;5.80;;;28.90;45.60;;;;;;6200903;28;20239;-83
2023/09/08 13:17:52;;;;;;;6.50;6.03;;;28.90;45.20;;;;;;6207419;28;20244;-80
2023/09/08 13:20:56;;;;;;;6.05;5.68;;;29.00;45.20;;;;;;6211850;28;20235;-80
2023/09/08 13:23:59;;;;;;;5.70;5.40;;;29.10;45.50;;;;;;6199333;28;20876;-79
2023/09/08 13:27:02;;;;;;;8.70;6.15;;;29.20;45.30;;;;;;6205893;28;20649;-81
2023/09/08 13:30:16;;;;;;;6.43;6.13;;;29.10;45.00;;;;;;6206712;28;20317;-80
2023/09/08 13:33:19;;;;;;;7.28;6.63;;;29.20;45.80;;;;;;6203325;28;20713;-81
2023/09/08 13:36:22;;;;;;;5.70;5.40;;;29.20;45.20;;;;;;6211729;28;20719;-77
2023/09/08 13:39:26;;;;;;;6.65;6.00;;;29.20;44.40;;;;;;6209863;28;20239;-78
2023/09/08 13:42:29;;;;;;;5.35;5.05;;;29.20;44.60;;;;;;6212837;28;20739;-82
2023/09/08 13:45:33;;;;;;;6.47;5.82;;;29.20;43.30;;;;;;6215176;28;20255;-82
2023/09/08 13:48:36;;;;;;;6.57;6.18;;;29.20;44.10;;;;;;6201391;28;20738;-78
2023/09/08 13:51:41;;;;;;;6.63;6.18;;;29.20;44.80;;;;;;6210490;28;20240;-80
2023/09/08 13:54:47;;;;;;;6.20;5.90;;;29.30;44.60;;;;;;6218047;28;20251;-80
2023/09/08 13:58:05;;;;;;;6.50;6.10;;;29.30;44.60;;;;;;6214027;28;20800;-81
2023/09/08 14:01:12;;;;;;;6.78;6.22;;;29.40;45.20;;;;;;6207948;28;20878;-80
2023/09/08 14:04:21;;;;;;;6.25;5.82;;;29.30;45.00;;;;;;6203996;28;20246;-79
2023/09/08 14:07:26;;;;;;;7.00;6.53;;;29.30;44.80;;;;;;6210486;28;20243;-79
2023/09/08 14:10:38;;;;;;;5.50;5.30;;;29.40;44.70;;;;;;6207048;28;20835;-82
2023/09/08 14:13:47;;;;;;;6.07;5.78;;;29.20;44.20;;;;;;6207784;28;20240;-82
2023/09/08 14:16:52;;;;;;;6.07;5.78;;;29.30;44.10;;;;;;6210366;28;20285;-81
2023/09/08 14:19:55;;;;;;;7.40;6.80;;;29.40;44.50;;;;;;6200174;28;20286;-82
2023/09/08 14:22:58;;;;;;;6.82;6.18;;;29.50;44.70;;;;;;6203279;28;20238;-81
2023/09/08 14:26:02;;;;;;;6.35;6.00;;;29.40;43.90;;;;;;6210858;28;20336;-79
2023/09/08 14:29:05;;;;;;;6.63;6.10;;;29.30;43.20;;;;;;6204038;28;20239;-79
2023/09/08 14:32:09;;;;;;;6.25;5.95;;;29.30;43.40;;;;;;6208527;28;20242;-78
2023/09/08 14:35:13;;;;;;;6.30;5.90;;;29.30;44.20;;;;;;6212406;28;20235;-80
2023/09/08 14:38:16;;;;;;;6.47;6.10;;;29.20;42.40;;;;;;6206443;28;20247;-80
2023/09/08 14:41:19;;;;;;;5.60;5.40;;;29.20;42.30;;;;;;6209897;28;20370;-82
2023/09/08 14:44:23;;;;;;;6.13;5.72;;;29.30;42.90;;;;;;6198492;28;20230;-81
2023/09/08 14:47:27;;;;;;;5.78;5.47;;;29.30;42.80;;;;;;6203791;28;20239;-80
2023/09/08 14:50:32;;;;;;;5.88;5.45;;;29.30;43.50;;;;;;6206089;28;20228;-83
2023/09/08 14:53:35;;;;;;;6.43;5.82;;;29.20;43.60;;;;;;6203585;28;20286;-81
2023/09/08 14:56:39;;;;;;;6.65;6.28;;;29.20;43.90;;;;;;6217070;28;20277;-81
2023/09/08 14:59:42;;;;;;;6.38;5.97;;;29.20;43.40;;;;;;6204245;28;20335;-80
2023/09/08 15:02:47;;;;;;;7.32;6.65;;;29.20;43.00;;;;;;6208484;28;20330;-82
2023/09/08 15:05:51;;;;;;;6.85;6.40;;;29.30;43.20;;;;;;6212979;28;20318;-82
2023/09/08 15:08:54;;;;;;;6.53;6.13;;;29.30;42.70;;;;;;6200769;28;20243;-81
2023/09/08 15:11:57;;;;;;;6.25;5.88;;;29.20;43.10;;;;;;6203661;28;20388;-80
2023/09/08 15:15:02;;;;;;;6.35;5.82;;;29.10;44.30;;;;;;6203735;28;20670;-83
2023/09/08 15:18:07;;;;;;;5.95;5.70;;;29.10;43.10;;;;;;6210601;28;20238;-81
2023/09/08 15:21:10;;;;;;;7.55;6.88;;;29.20;43.40;;;;;;6207672;28;20239;-80
2023/09/08 15:24:14;;;;;;;6.82;6.43;;;29.20;43.80;;;;;;6199614;28;20262;-81
2023/09/08 15:27:17;;;;;;;6.50;6.20;;;29.10;43.60;;;;;;6202640;28;20244;-79
2023/09/08 15:30:20;;;;;;;6.93;6.53;;;28.90;43.50;;;;;;6204863;28;21033;-79
2023/09/08 15:33:26;;;;;;;6.90;6.30;;;28.90;44.10;;;;;;6203754;28;20768;-81
2023/09/08 15:36:29;;;;;;;6.55;6.18;;;28.70;44.40;;;;;;6208743;28;20231;-79
2023/09/08 15:39:32;;;;;;;6.70;6.22;;;28.60;44.10;;;;;;6196387;28;20627;-80
2023/09/08 15:42:35;;;;;;;6.83;6.23;;;28.50;44.70;;;;;;6202674;28;20285;-79
2023/09/08 15:45:38;;;;;;;6.37;6.07;;;28.30;44.70;;;;;;6208027;28;20287;-79
2023/09/08 15:48:43;;;;;;;8.05;7.05;;;28.10;45.10;;;;;;6205437;28;20243;-82